Time;durP1;ratioP1;P1;durP2;ratioP2;P2;SDS_P1;SDS_P2;PMS_P1;PMS_P2;Temp;Humidity;BMP_temperature;BMP_pressure;BME280_temperature;BME280_humidity;BME280_pressure;Samples;Min_cycle;Max_cycle;Signal;HPM_P1;HPM_P2
2022/09/06 00:01:10;;;;;;;;;;;;;;;7.91;69.20;100059.72;1622189;86;20090;-64
2022/09/06 00:03:36;;;;;;;;;;;;;;;7.85;69.35;100061.10;1618929;86;20171;-64
2022/09/06 00:06:08;;;;;;;;;;;;;;;7.81;69.45;100064.17;1619257;86;20454;-64
2022/09/06 00:08:35;;;;;;;;;;;;;;;7.76;69.58;100061.11;1626462;86;21132;-64
2022/09/06 00:11:02;;;;;;;;;;;;;;;7.72;69.64;100064.51;1616377;86;20163;-64
2022/09/06 00:13:28;;;;;;;;;;;;;;;7.70;69.74;100071.77;1615957;86;20153;-64
2022/09/06 00:15:55;;;;;;;;;;;;;;;7.65;69.84;100066.52;1618834;86;20146;-64
2022/09/06 00:18:21;;;;;;;;;;;;;;;7.58;69.93;100062.76;1616743;86;20160;-64
2022/09/06 00:20:47;;;;;;;;;;;;;;;7.53;70.20;100063.66;1622128;86;21187;-64
2022/09/06 00:23:14;;;;;;;;;;;;;;;7.50;70.49;100062.12;1618876;86;20219;-64
2022/09/06 00:25:40;;;;;;;;;;;;;;;7.48;70.74;100059.59;1618674;86;20469;-65
2022/09/06 00:28:07;;;;;;;;;;;;;;;7.45;71.02;100059.89;1620329;86;20137;-65
2022/09/06 00:30:33;;;;;;;;;;;;;;;7.43;71.12;100065.78;1615723;86;20092;-65
2022/09/06 00:32:59;;;;;;;;;;;;;;;7.42;71.35;100057.99;1617000;86;21192;-65
2022/09/06 00:35:26;;;;;;;;;;;;;;;7.42;71.46;100058.84;1617151;86;20140;-65
2022/09/06 00:37:58;;;;;;;;;;;;;;;7.41;71.61;100053.66;1618336;86;20146;-65
2022/09/06 00:40:25;;;;;;;;;;;;;;;7.43;71.78;100055.68;1609813;86;20594;-65
2022/09/06 00:42:51;;;;;;;;;;;;;;;7.43;71.88;100056.52;1616909;86;20449;-65
2022/09/06 00:45:17;;;;;;;;;;;;;;;7.44;71.96;100054.23;1622741;86;20742;-65
2022/09/06 00:47:44;;;;;;;;;;;;;;;7.44;72.11;100056.88;1618499;87;20434;-64
2022/09/06 00:50:12;;;;;;;;;;;;;;;7.45;72.23;100057.25;1619163;86;20148;-65
2022/09/06 00:52:39;;;;;;;;;;;;;;;7.47;72.36;100054.45;1616976;86;20605;-64
2022/09/06 00:55:06;;;;;;;;;;;;;;;7.50;72.51;100053.34;1617390;86;20148;-65
2022/09/06 00:57:33;;;;;;;;;;;;;;;7.50;72.49;100051.53;1619492;86;21181;-65
2022/09/06 01:00:00;;;;;;;;;;;;;;;7.52;72.51;100049.58;1615235;86;20185;-65
2022/09/06 01:02:27;;;;;;;;;;;;;;;7.53;72.48;100050.42;1620147;86;20102;-64
2022/09/06 01:04:53;;;;;;;;;;;;;;;7.54;72.36;100051.59;1615101;86;20152;-65
2022/09/06 01:07:46;;;;;;;;;;;;;;;7.54;72.34;100053.40;1620161;86;20224;-65
2022/09/06 01:10:29;;;;;;;;;;;;;;;7.53;72.33;100048.62;1615684;86;21205;-64
2022/09/06 01:13:00;;;;;;;;;;;;;;;7.51;72.34;100048.41;1616302;86;20095;-63
2022/09/06 01:15:33;;;;;;;;;;;;;;;7.48;72.40;100049.00;1616071;86;20107;-64
2022/09/06 01:18:12;;;;;;;;;;;;;;;7.46;72.42;100043.02;1619256;86;20092;-63
2022/09/06 01:20:48;;;;;;;;;;;;;;;7.45;72.40;100051.11;1615477;86;20095;-64
2022/09/06 01:23:41;;;;;;;;;;;;;;;7.42;72.51;100046.92;1615637;86;20625;-64
2022/09/06 01:26:31;;;;;;;;;;;;;;;7.42;72.63;100041.63;1618133;86;20126;-64
2022/09/06 01:28:57;;;;;;;;;;;;;;;7.46;72.79;100043.50;1619170;86;20405;-64
2022/09/06 01:31:34;;;;;;;;;;;;;;;7.48;72.64;100045.55;1617143;86;20096;-64
2022/09/06 01:34:13;;;;;;;;;;;;;;;7.49;72.55;100045.88;1620188;86;20156;-64
2022/09/06 01:36:48;;;;;;;;;;;;;;;7.50;72.48;100041.42;1615360;86;22403;-65
2022/09/06 01:39:24;;;;;;;;;;;;;;;7.48;72.36;100044.70;1618691;86;20128;-65
2022/09/06 01:41:50;;;;;;;;;;;;;;;7.42;72.19;100040.30;1616632;86;21243;-65
2022/09/06 01:44:16;;;;;;;;;;;;;;;7.34;72.08;100037.50;1619505;86;20437;-64
2022/09/06 01:47:06;;;;;;;;;;;;;;;7.30;72.12;100031.30;1617131;86;20160;-66
2022/09/06 01:49:39;;;;;;;;;;;;;;;7.25;72.18;100036.14;1616993;86;21187;-65
2022/09/06 01:52:21;;;;;;;;;;;;;;;7.18;72.36;100034.53;1617827;86;20466;-65
2022/09/06 01:55:06;;;;;;;;;;;;;;;7.18;72.76;100037.18;1615859;86;20429;-65
2022/09/06 01:57:51;;;;;;;;;;;;;;;7.17;73.04;100033.36;1618507;86;20148;-64
2022/09/06 02:00:18;;;;;;;;;;;;;;;7.19;73.33;100037.55;1620400;86;20091;-64
2022/09/06 02:03:09;;;;;;;;;;;;;;;7.20;73.34;100033.91;1614226;86;21833;-64
2022/09/06 02:05:54;;;;;;;;;;;;;;;7.17;73.25;100032.04;1615829;86;20097;-64
2022/09/06 02:08:39;;;;;;;;;;;;;;;7.12;73.34;100034.22;1618339;86;20132;-64
2022/09/06 02:11:06;;;;;;;;;;;;;;;7.10;73.39;100028.23;1617020;86;20117;-64
2022/09/06 02:13:46;;;;;;;;;;;;;;;7.06;73.51;100032.98;1616403;86;20140;-64
2022/09/06 02:16:13;;;;;;;;;;;;;;;7.04;73.60;100025.64;1609388;86;21149;-63
2022/09/06 02:18:43;;;;;;;;;;;;;;;7.03;73.60;100029.27;1617247;87;20140;-65
2022/09/06 02:21:11;;;;;;;;;;;;;;;7.04;73.72;100034.09;1591466;86;20129;-63
2022/09/06 02:23:39;;;;;;;;;;;;;;;7.04;73.75;100037.54;1620847;86;20243;-63
2022/09/06 02:26:26;;;;;;;;;;;;;;;7.02;73.98;100034.20;1618410;86;20474;-63
2022/09/06 02:28:53;;;;;;;;;;;;;;;7.05;74.07;100035.26;1618419;86;22071;-64
2022/09/06 02:31:22;;;;;;;;;;;;;;;7.03;74.04;100031.92;1618024;86;20460;-64
2022/09/06 02:33:49;;;;;;;;;;;;;;;7.01;73.92;100027.73;1615644;86;20129;-64
2022/09/06 02:36:15;;;;;;;;;;;;;;;6.98;73.81;100030.64;1588921;87;20128;-64
2022/09/06 02:38:42;;;;;;;;;;;;;;;6.92;73.54;100031.17;1617561;86;20329;-64
2022/09/06 02:41:08;;;;;;;;;;;;;;;6.85;73.51;100033.53;1569762;87;21312;-64
2022/09/06 02:43:35;;;;;;;;;;;;;;;6.81;73.33;100033.42;1618652;86;20120;-64
2022/09/06 02:46:02;;;;;;;;;;;;;;;6.75;73.26;100027.37;1612991;86;20088;-64
2022/09/06 02:48:29;;;;;;;;;;;;;;;6.70;73.23;100026.92;1618895;86;20092;-64
2022/09/06 02:50:55;;;;;;;;;;;;;;;6.65;73.43;100027.30;1618638;86;20446;-64
2022/09/06 02:53:21;;;;;;;;;;;;;;;6.62;73.44;100022.78;1616970;86;21179;-63
2022/09/06 02:55:47;;;;;;;;;;;;;;;6.57;73.50;100020.52;1620786;86;20108;-63
2022/09/06 02:58:14;;;;;;;;;;;;;;;6.55;73.62;100029.06;1618313;86;20144;-63
2022/09/06 03:00:40;;;;;;;;;;;;;;;6.53;73.73;100030.16;1615353;87;20129;-64
2022/09/06 03:03:06;;;;;;;;;;;;;;;6.51;73.77;100036.08;1618981;86;20107;-63
2022/09/06 03:05:33;;;;;;;;;;;;;;;6.47;73.77;100037.28;1618218;87;21838;-63
2022/09/06 03:07:59;;;;;;;;;;;;;;;6.42;73.84;100036.84;1623074;86;20481;-63
2022/09/06 03:10:26;;;;;;;;;;;;;;;6.37;73.90;100031.11;1627614;86;20124;-63
2022/09/06 03:12:53;;;;;;;;;;;;;;;6.35;74.03;100032.58;1641532;86;20111;-63
2022/09/06 03:15:19;;;;;;;;;;;;;;;6.34;74.15;100039.30;1637047;86;20122;-63
2022/09/06 03:17:46;;;;;;;;;;;;;;;6.32;74.18;100046.05;1638916;86;21178;-64
2022/09/06 03:20:12;;;;;;;;;;;;;;;6.32;74.31;100037.27;1638082;86;20183;-65
2022/09/06 03:22:39;;;;;;;;;;;;;;;6.31;74.27;100050.16;1641520;86;20191;-65
2022/09/06 03:25:06;;;;;;;;;;;;;;;6.27;74.28;100043.44;1635354;86;20096;-64
2022/09/06 03:27:34;;;;;;;;;;;;;;;6.23;74.06;100047.31;1637164;86;20217;-64
2022/09/06 03:30:00;;;;;;;;;;;;;;;6.18;74.11;100047.67;1638005;86;21169;-64
2022/09/06 03:32:26;;;;;;;;;;;;;;;6.18;74.24;100049.00;1638623;86;20120;-63
2022/09/06 03:34:53;;;;;;;;;;;;;;;6.14;74.00;100048.44;1637327;86;20092;-64
2022/09/06 03:37:19;;;;;;;;;;;;;;;6.10;73.91;100043.04;1636420;86;20463;-65
2022/09/06 03:39:46;;;;;;;;;;;;;;;6.06;73.68;100048.23;1641665;86;20197;-64
2022/09/06 03:42:12;;;;;;;;;;;;;;;6.03;73.63;100048.97;1637500;86;21183;-64
2022/09/06 03:44:38;;;;;;;;;;;;;;;5.99;73.94;100040.48;1639350;86;20092;-64
2022/09/06 03:47:04;;;;;;;;;;;;;;;6.05;74.66;100038.62;1637616;86;20445;-64
2022/09/06 03:49:31;;;;;;;;;;;;;;;6.16;75.40;100046.50;1636789;86;20255;-65
2022/09/06 03:51:57;;;;;;;;;;;;;;;6.28;75.84;100039.84;1638555;86;20153;-64
2022/09/06 03:54:24;;;;;;;;;;;;;;;6.39;76.09;100039.77;1638874;86;21465;-65
2022/09/06 03:56:50;;;;;;;;;;;;;;;6.49;76.17;100041.98;1638702;86;20148;-65
2022/09/06 03:59:16;;;;;;;;;;;;;;;6.50;75.72;100037.88;1638247;86;20117;-65
2022/09/06 04:01:43;;;;;;;;;;;;;;;6.47;75.23;100035.97;1636813;86;20187;-64
2022/09/06 04:04:09;;;;;;;;;;;;;;;6.48;75.35;100038.97;1641486;86;20088;-65
2022/09/06 04:06:36;;;;;;;;;;;;;;;6.49;75.33;100047.27;1637046;86;21745;-65
2022/09/06 04:09:02;;;;;;;;;;;;;;;6.51;75.43;100046.65;1638388;86;20705;-65
2022/09/06 04:11:29;;;;;;;;;;;;;;;6.56;75.65;100051.05;1638407;86;20659;-64
2022/09/06 04:13:55;;;;;;;;;;;;;;;6.60;75.62;100051.13;1639671;86;20153;-64
2022/09/06 04:16:21;;;;;;;;;;;;;;;6.62;75.50;100047.39;1637780;86;20167;-64
2022/09/06 04:18:48;;;;;;;;;;;;;;;6.65;75.35;100050.25;1638665;86;21225;-64
2022/09/06 04:21:14;;;;;;;;;;;;;;;6.83;75.66;100040.73;1638271;86;20104;-65
2022/09/06 04:23:40;;;;;;;;;;;;;;;7.43;75.80;100041.12;1637707;86;20193;-64
2022/09/06 04:26:07;;;;;;;;;;;;;;;8.23;74.77;100039.06;1639392;86;20115;-64
2022/09/06 04:28:33;;;;;;;;;;;;;;;8.95;73.03;100038.45;1636159;86;20426;-64
2022/09/06 04:31:00;;;;;;;;;;;;;;;9.68;71.16;100037.46;1636389;86;21178;-65
2022/09/06 04:33:27;;;;;;;;;;;;;;;10.17;69.04;100031.62;1635554;86;20595;-64
2022/09/06 04:35:56;;;;;;;;;;;;;;;10.42;67.82;100029.98;1635442;86;20145;-64
2022/09/06 04:38:24;;;;;;;;;;;;;;;11.08;65.75;100027.02;1636492;86;20129;-64
2022/09/06 04:40:51;;;;;;;;;;;;;;;11.82;63.48;100022.25;1634480;86;20116;-64
2022/09/06 04:43:17;;;;;;;;;;;;;;;12.56;61.02;100021.22;1637509;86;21161;-64
2022/09/06 04:45:44;;;;;;;;;;;;;;;13.14;58.33;100021.72;1633163;86;20129;-66
2022/09/06 04:48:10;;;;;;;;;;;;;;;13.63;56.25;100020.45;1638150;86;20174;-65
2022/09/06 04:50:37;;;;;;;;;;;;;;;14.09;54.67;100015.96;1638469;86;20271;-65
2022/09/06 04:53:06;;;;;;;;;;;;;;;14.48;53.02;100009.11;1636585;86;20226;-64
2022/09/06 04:55:33;;;;;;;;;;;;;;;14.86;51.95;100013.87;1639702;86;21751;-65
2022/09/06 04:58:02;;;;;;;;;;;;;;;15.34;50.82;100012.46;1638353;86;20139;-65
2022/09/06 05:00:30;;;;;;;;;;;;;;;15.74;49.87;100011.09;1640910;86;20104;-65
2022/09/06 05:02:57;;;;;;;;;;;;;;;15.99;48.42;100009.69;1636944;86;20132;-66
2022/09/06 05:05:23;;;;;;;;;;;;;;;16.22;48.25;100009.47;1637124;86;20096;-65
2022/09/06 05:07:53;;;;;;;;;;;;;;;16.59;48.16;100011.36;1638819;86;21164;-66
2022/09/06 05:10:21;;;;;;;;;;;;;;;17.23;47.35;100014.61;1632959;86;20159;-66
2022/09/06 05:12:52;;;;;;;;;;;;;;;18.04;46.03;100016.83;1621795;86;20436;-66
2022/09/06 05:15:18;;;;;;;;;;;;;;;18.82;44.38;100016.00;1614538;86;20158;-66
2022/09/06 05:17:45;;;;;;;;;;;;;;;19.62;42.79;100014.73;1618060;86;20169;-67
2022/09/06 05:20:12;;;;;;;;;;;;;;;20.32;40.88;100015.01;1616580;86;21119;-66
2022/09/06 05:22:39;;;;;;;;;;;;;;;20.83;39.29;100014.77;1615991;86;20103;-65
2022/09/06 05:25:07;;;;;;;;;;;;;;;21.38;37.77;100012.37;1619034;86;20096;-66
2022/09/06 05:27:33;;;;;;;;;;;;;;;21.88;36.40;100012.98;1617714;86;20612;-67
2022/09/06 05:29:59;;;;;;;;;;;;;;;22.33;35.54;100016.56;1617844;86;20102;-67
2022/09/06 05:32:25;;;;;;;;;;;;;;;22.96;34.37;100020.27;1616426;86;21167;-67
2022/09/06 05:34:52;;;;;;;;;;;;;;;23.52;32.78;100014.14;1616388;86;20119;-67
2022/09/06 05:37:18;;;;;;;;;;;;;;;23.81;32.25;100012.26;1618293;86;20093;-67
2022/09/06 05:39:45;;;;;;;;;;;;;;;24.56;31.64;100011.41;1619929;86;20104;-65
2022/09/06 05:42:11;;;;;;;;;;;;;;;25.52;30.33;100012.27;1627104;86;20246;-65
2022/09/06 05:44:38;;;;;;;;;;;;;;;26.44;28.75;100005.27;1620210;86;21846;-65
2022/09/06 05:47:04;;;;;;;;;;;;;;;26.89;27.47;100012.45;1616332;86;20138;-65
2022/09/06 05:49:31;;;;;;;;;;;;;;;27.25;27.27;100007.16;1625871;86;20199;-66
2022/09/06 05:51:58;;;;;;;;;;;;;;;28.00;26.36;100004.69;1623239;86;20137;-66
2022/09/06 05:54:24;;;;;;;;;;;;;;;27.87;26.02;100003.05;1619027;86;20080;-69
2022/09/06 05:56:50;;;;;;;;;;;;;;;26.80;27.04;100018.68;1617745;86;21133;-68
2022/09/06 05:59:17;;;;;;;;;;;;;;;25.67;28.17;100011.08;1628905;86;20637;-68
2022/09/06 06:01:48;;;;;;;;;;;;;;;24.36;29.58;100011.92;1623735;86;20127;-69
2022/09/06 06:04:14;;;;;;;;;;;;;;;23.63;30.80;100019.25;1623184;86;20096;-68
2022/09/06 06:06:42;;;;;;;;;;;;;;;23.68;30.68;100022.05;1632309;86;20473;-65
2022/09/06 06:09:08;;;;;;;;;;;;;;;23.41;30.98;100024.53;1630912;86;21172;-67
2022/09/06 06:11:36;;;;;;;;;;;;;;;22.79;31.57;100027.45;1626288;87;20202;-70
2022/09/06 06:14:03;;;;;;;;;;;;;;;22.32;32.49;100035.22;1626711;86;20133;-71
2022/09/06 06:16:29;;;;;;;;;;;;;;;21.82;33.30;100036.87;1619350;87;20592;-70
2022/09/06 06:18:55;;;;;;;;;;;;;;;21.32;34.14;100039.52;1633788;87;20166;-67
2022/09/06 06:21:23;;;;;;;;;;;;;;;21.12;34.51;100037.03;1616354;87;21179;-69
2022/09/06 06:23:52;;;;;;;;;;;;;;;20.85;35.15;100041.05;1615399;87;20105;-68
2022/09/06 06:26:19;;;;;;;;;;;;;;;20.75;35.59;100038.83;1623424;86;20462;-70
2022/09/06 06:28:45;;;;;;;;;;;;;;;20.93;35.44;100033.45;1616124;86;20162;-67
2022/09/06 06:31:11;;;;;;;;;;;;;;;21.08;35.59;100039.90;1620105;86;20187;-69
2022/09/06 06:33:38;;;;;;;;;;;;;;;22.29;34.56;100046.55;1621107;86;21129;-68
2022/09/06 06:36:13;;;;;;;;;;;;;;;23.68;32.80;100033.75;1624453;86;20120;-68
2022/09/06 06:38:41;;;;;;;;;;;;;;;23.80;32.02;100037.23;1616169;86;20133;-68
2022/09/06 06:41:08;;;;;;;;;;;;;;;24.71;30.89;100037.50;1613314;86;20197;-70
2022/09/06 06:43:36;;;;;;;;;;;;;;;24.95;30.11;100038.16;1616871;86;20111;-68
2022/09/06 06:46:05;;;;;;;;;;;;;;;24.44;30.40;100044.67;1615897;86;21190;-67
2022/09/06 06:48:33;;;;;;;;;;;;;;;24.04;30.90;100044.75;1621937;86;20096;-70
2022/09/06 06:50:59;;;;;;;;;;;;;;;23.95;31.03;100047.58;1616045;86;20175;-69
2022/09/06 06:53:26;;;;;;;;;;;;;;;24.74;30.31;100044.34;1616012;86;20215;-70
2022/09/06 06:55:53;;;;;;;;;;;;;;;26.07;28.76;100037.11;1616103;86;20092;-72
2022/09/06 06:58:19;;;;;;;;;;;;;;;27.02;27.25;100034.90;1618855;86;21135;-68
2022/09/06 07:00:46;;;;;;;;;;;;;;;26.94;26.83;100037.59;1618913;86;20506;-70
2022/09/06 07:03:12;;;;;;;;;;;;;;;26.38;27.38;100043.95;1619995;86;20417;-70
2022/09/06 07:05:42;;;;;;;;;;;;;;;27.36;26.98;100034.81;1617280;86;20823;-69
2022/09/06 07:08:08;;;;;;;;;;;;;;;29.04;25.01;100034.81;1618820;86;20135;-68
2022/09/06 07:10:36;;;;;;;;;;;;;;;29.23;24.07;100030.39;1617317;86;21189;-67
2022/09/06 07:13:03;;;;;;;;;;;;;;;29.83;23.48;100030.15;1617783;86;20154;-69
2022/09/06 07:15:31;;;;;;;;;;;;;;;30.98;22.29;100026.23;1618084;86;20195;-69
2022/09/06 07:17:57;;;;;;;;;;;;;;;32.44;21.24;100026.77;1619046;86;20095;-70
2022/09/06 07:20:27;;;;;;;;;;;;;;;33.76;19.67;100020.42;1621408;86;20451;-69
2022/09/06 07:23:00;;;;;;;;;;;;;;;34.54;18.84;100022.14;1620027;86;21191;-68
2022/09/06 07:25:27;;;;;;;;;;;;;;;34.75;18.60;100021.08;1616144;86;20159;-70
2022/09/06 07:27:56;;;;;;;;;;;;;;;35.21;18.07;100023.42;1617720;86;20429;-69
2022/09/06 07:30:23;;;;;;;;;;;;;;;34.62;17.90;100026.13;1616706;87;20152;-69
2022/09/06 07:32:49;;;;;;;;;;;;;;;33.84;18.51;100021.86;1618908;86;20423;-68
2022/09/06 07:35:16;;;;;;;;;;;;;;;33.89;18.53;100023.16;1621360;86;21172;-68
2022/09/06 07:37:42;;;;;;;;;;;;;;;34.35;18.09;100019.31;1620531;86;20084;-68
2022/09/06 07:40:09;;;;;;;;;;;;;;;33.73;18.16;100021.86;1616649;86;20117;-68
2022/09/06 07:42:36;;;;;;;;;;;;;;;31.89;19.52;100027.07;1614216;86;20125;-68
2022/09/06 07:45:03;;;;;;;;;;;;;;;30.79;20.69;100028.05;1622187;86;20156;-68
2022/09/06 07:47:30;;;;;;;;;;;;;;;30.94;20.88;100032.06;1619340;86;22004;-67
2022/09/06 07:49:57;;;;;;;;;;;;;;;31.80;20.08;100026.09;1617317;86;20088;-68
2022/09/06 07:52:25;;;;;;;;;;;;;;;32.98;18.79;100018.09;1615510;86;20418;-68
2022/09/06 07:54:52;;;;;;;;;;;;;;;34.07;17.50;100015.86;1618322;86;20183;-68
2022/09/06 07:57:18;;;;;;;;;;;;;;;34.70;16.77;100012.93;1620525;86;20121;-69
2022/09/06 07:59:45;;;;;;;;;;;;;;;35.17;16.29;100014.94;1618331;86;21266;-67
2022/09/06 08:02:11;;;;;;;;;;;;;;;35.73;15.99;100018.86;1621108;86;20131;-70
2022/09/06 08:04:39;;;;;;;;;;;;;;;36.46;15.24;100013.75;1616699;86;20132;-69
2022/09/06 08:07:06;;;;;;;;;;;;;;;36.80;14.66;100015.09;1619404;87;20152;-68
2022/09/06 08:09:32;;;;;;;;;;;;;;;37.15;14.47;100020.53;1616794;86;20163;-70
2022/09/06 08:11:58;;;;;;;;;;;;;;;37.28;14.47;100016.16;1615957;86;21188;-68
2022/09/06 08:14:25;;;;;;;;;;;;;;;37.21;14.27;100015.84;1614637;87;20125;-67
2022/09/06 08:16:51;;;;;;;;;;;;;;;37.56;14.17;100015.94;1612076;87;20195;-68
2022/09/06 08:19:17;;;;;;;;;;;;;;;37.95;13.74;100009.72;1615325;87;20207;-68
2022/09/06 08:21:44;;;;;;;;;;;;;;;38.13;13.67;100006.45;1611683;87;20112;-68
2022/09/06 08:24:10;;;;;;;;;;;;;;;38.48;13.28;100007.55;1612677;87;22076;-68
2022/09/06 08:26:41;;;;;;;;;;;;;;;38.79;13.12;100007.31;1613199;87;20108;-69
2022/09/06 08:29:08;;;;;;;;;;;;;;;39.36;12.71;100005.05;1611994;87;20132;-68
2022/09/06 08:31:37;;;;;;;;;;;;;;;39.78;12.11;100001.42;1611969;87;20196;-68
2022/09/06 08:34:05;;;;;;;;;;;;;;;40.13;12.21;99998.92;1612755;87;20524;-68
2022/09/06 08:36:32;;;;;;;;;;;;;;;40.59;11.91;100001.03;1615581;87;22163;-68
2022/09/06 08:38:59;;;;;;;;;;;;;;;41.06;11.60;99994.93;1614748;87;20108;-67
2022/09/06 08:41:59;;;;;;;;;;;;;;;41.52;11.31;99990.47;1614269;87;20173;-67
2022/09/06 08:44:43;;;;;;;;;;;;;;;41.64;10.91;99987.53;1611994;87;20431;-68
2022/09/06 08:47:11;;;;;;;;;;;;;;;41.29;10.87;99985.31;1611663;87;20112;-67
2022/09/06 08:49:56;;;;;;;;;;;;;;;41.06;10.65;99986.56;1612539;87;21171;-67
2022/09/06 08:52:52;;;;;;;;;;;;;;;40.71;10.79;99981.43;1611942;87;20175;-68
2022/09/06 08:55:39;;;;;;;;;;;;;;;40.72;10.73;99978.87;1614813;87;20129;-67
2022/09/06 08:58:12;;;;;;;;;;;;;;;41.25;10.48;99972.66;1613277;87;20123;-68
2022/09/06 09:00:40;;;;;;;;;;;;;;;41.52;10.25;99965.92;1613700;87;20193;-68
2022/09/06 09:03:22;;;;;;;;;;;;;;;41.38;10.54;99964.22;1611643;87;21180;-67
2022/09/06 09:05:51;;;;;;;;;;;;;;;41.12;10.41;99965.56;1606236;87;20134;-69
2022/09/06 09:08:24;;;;;;;;;;;;;;;41.00;10.41;99964.28;1613233;87;20092;-69
2022/09/06 09:11:10;;;;;;;;;;;;;;;41.05;10.53;99959.00;1614224;87;20149;-69
2022/09/06 09:13:55;;;;;;;;;;;;;;;41.10;10.40;99959.54;1610190;87;20092;-66
2022/09/06 09:16:22;;;;;;;;;;;;;;;41.15;10.57;99948.67;1607182;87;21189;-68
2022/09/06 09:18:51;;;;;;;;;;;;;;;41.67;10.40;99949.69;1612147;87;20447;-68
2022/09/06 09:21:20;;;;;;;;;;;;;;;42.10;10.13;99938.84;1611058;87;33457;-67
2022/09/06 09:23:53;;;;;;;;;;;;;;;42.60;9.89;99942.05;1611415;87;20096;-67
2022/09/06 09:26:20;;;;;;;;;;;;;;;42.59;9.53;99942.63;1611588;87;20152;-68
2022/09/06 09:29:11;;;;;;;;;;;;;;;41.42;9.77;99946.95;1610411;87;21259;-68
2022/09/06 09:31:43;;;;;;;;;;;;;;;39.19;10.76;99952.44;1612209;87;20108;-69
2022/09/06 09:34:14;;;;;;;;;;;;;;;36.50;12.32;99953.22;1613005;87;20532;-68
2022/09/06 09:36:40;;;;;;;;;;;;;;;34.39;13.88;99962.34;1610523;87;20126;-67
2022/09/06 09:39:10;;;;;;;;;;;;;;;32.62;15.37;99959.28;1611123;87;20434;-69
2022/09/06 09:41:39;;;;;;;;;;;;;;;31.12;16.50;99964.00;1614052;87;21182;-68
2022/09/06 09:44:12;;;;;;;;;;;;;;;29.93;17.40;99975.23;1585089;87;20483;-70
2022/09/06 09:46:39;;;;;;;;;;;;;;;28.87;18.38;99979.52;1610308;87;20082;-70
2022/09/06 09:49:13;;;;;;;;;;;;;;;28.00;19.30;99978.70;1611078;87;20124;-70
2022/09/06 09:51:41;;;;;;;;;;;;;;;27.41;20.07;99978.86;1609264;87;20244;-68
2022/09/06 09:54:09;;;;;;;;;;;;;;;27.75;20.13;99978.69;1610884;87;21797;-71
2022/09/06 09:56:42;;;;;;;;;;;;;;;29.30;19.09;99972.02;1611370;87;20129;-69
2022/09/06 09:59:31;;;;;;;;;;;;;;;31.08;17.52;99968.98;1612023;87;20161;-72
2022/09/06 10:02:00;;;;;;;;;;;;;;;32.70;16.03;99954.45;1610367;87;20270;-68
2022/09/06 10:04:35;;;;;;;;;;;;;;;34.02;14.44;99949.16;1610477;87;20431;-69
2022/09/06 10:07:18;;;;;;;;;;;;;;;35.02;13.69;99955.91;1612293;87;21178;-69
2022/09/06 10:10:04;;;;;;;;;;;;;;;36.14;12.65;99947.84;1609145;87;20173;-71
2022/09/06 10:12:35;;;;;;;;;;;;;;;37.23;11.72;99953.94;1613845;87;20120;-68
2022/09/06 10:15:01;;;;;;;;;;;;;;;38.23;11.82;99934.38;1611215;87;20107;-68
2022/09/06 10:17:33;;;;;;;;;;;;;;;38.55;12.03;99941.91;1613305;87;20173;-68
2022/09/06 10:20:04;;;;;;;;;;;;;;;38.64;12.01;99932.09;1613299;87;21368;-68
2022/09/06 10:22:33;;;;;;;;;;;;;;;38.22;12.36;99941.11;1613702;87;20125;-68
2022/09/06 10:25:27;;;;;;;;;;;;;;;37.23;12.80;99945.61;1610652;87;20459;-68
2022/09/06 10:28:00;;;;;;;;;;;;;;;36.02;13.56;99950.44;1613736;87;20082;-67
2022/09/06 10:30:27;;;;;;;;;;;;;;;35.17;14.38;99952.73;1609442;87;20129;-68
2022/09/06 10:32:57;;;;;;;;;;;;;;;34.81;14.63;99956.83;1613381;87;21185;-68
2022/09/06 10:35:30;;;;;;;;;;;;;;;34.04;14.92;99954.35;1613216;87;20101;-68
2022/09/06 10:38:17;;;;;;;;;;;;;;;33.45;15.36;99953.47;1614509;87;20160;-68
2022/09/06 10:40:47;;;;;;;;;;;;;;;32.50;15.89;99960.31;1612308;87;20180;-68
2022/09/06 10:43:16;;;;;;;;;;;;;;;31.19;16.81;99958.13;1612978;87;20182;-67
2022/09/06 10:46:01;;;;;;;;;;;;;;;30.04;17.86;99958.69;1611112;87;22015;-67
2022/09/06 10:48:41;;;;;;;;;;;;;;;29.15;18.73;99962.45;1612026;87;20166;-67
2022/09/06 10:51:11;;;;;;;;;;;;;;;28.26;19.54;99967.83;1588516;89;20145;-68
2022/09/06 10:54:00;;;;;;;;;;;;;;;27.51;20.27;99968.78;1614830;87;20096;-67
2022/09/06 10:56:48;;;;;;;;;;;;;;;26.88;20.77;99969.06;1609312;87;20096;-67
2022/09/06 10:59:35;;;;;;;;;;;;;;;26.35;21.33;99961.85;1613354;87;21203;-67
2022/09/06 11:02:08;;;;;;;;;;;;;;;25.73;21.95;99959.62;1611796;87;20499;-68
2022/09/06 11:04:37;;;;;;;;;;;;;;;25.20;22.49;99967.73;1614672;87;20128;-68
2022/09/06 11:07:16;;;;;;;;;;;;;;;24.78;22.74;99962.50;1612979;87;20148;-68
2022/09/06 11:09:45;;;;;;;;;;;;;;;24.58;23.08;99967.66;1612716;87;20491;-67
2022/09/06 11:12:24;;;;;;;;;;;;;;;25.22;22.95;99964.73;1612377;87;21188;-68
2022/09/06 11:14:51;;;;;;;;;;;;;;;26.53;21.86;99962.80;1611969;87;20125;-68
2022/09/06 11:17:24;;;;;;;;;;;;;;;27.31;21.03;99950.94;1611920;87;20124;-68
2022/09/06 11:20:09;;;;;;;;;;;;;;;27.68;20.61;99946.70;1611477;87;20108;-68
2022/09/06 11:22:39;;;;;;;;;;;;;;;27.87;20.19;99945.64;1613672;87;20169;-68
2022/09/06 11:25:26;;;;;;;;;;;;;;;27.53;20.03;99943.95;1609588;87;21271;-68
2022/09/06 11:27:54;;;;;;;;;;;;;;;27.23;20.49;99939.70;1614178;87;20125;-67
2022/09/06 11:30:21;;;;;;;;;;;;;;;26.72;20.99;99949.55;1612594;87;20166;-67
2022/09/06 11:32:48;;;;;;;;;;;;;;;26.09;21.21;99943.61;1615474;87;20129;-68
2022/09/06 11:35:27;;;;;;;;;;;;;;;25.58;21.90;99949.11;1612201;87;20128;-68
2022/09/06 11:38:04;;;;;;;;;;;;;;;25.29;22.32;99945.77;1614010;87;21183;-68
2022/09/06 11:40:42;;;;;;;;;;;;;;;24.85;22.45;99942.23;1613537;87;20108;-68
2022/09/06 11:43:10;;;;;;;;;;;;;;;24.35;23.11;99945.00;1612791;87;20115;-67
2022/09/06 11:45:44;;;;;;;;;;;;;;;23.99;24.06;99945.47;1610574;87;20210;-70
2022/09/06 11:48:32;;;;;;;;;;;;;;;24.00;24.27;99938.16;1610762;87;20093;-68
2022/09/06 11:51:06;;;;;;;;;;;;;;;24.07;24.18;99938.80;1609569;87;21189;-68
2022/09/06 11:53:35;;;;;;;;;;;;;;;24.18;23.80;99936.05;1612976;87;20147;-69
2022/09/06 11:56:05;;;;;;;;;;;;;;;24.27;23.91;99931.83;1587626;89;20194;-69
2022/09/06 11:58:36;;;;;;;;;;;;;;;24.35;23.84;99930.61;1611808;87;20144;-69
2022/09/06 12:01:17;;;;;;;;;;;;;;;24.32;23.89;99931.94;1613071;87;20108;-69
2022/09/06 12:03:54;;;;;;;;;;;;;;;24.35;23.78;99925.97;1613663;87;21242;-68
2022/09/06 12:06:30;;;;;;;;;;;;;;;24.36;24.09;99927.63;1611964;87;20687;-68
2022/09/06 12:08:57;;;;;;;;;;;;;;;24.37;23.53;99921.66;1613833;87;20104;-68
2022/09/06 12:11:43;;;;;;;;;;;;;;;24.29;23.57;99918.83;1613451;87;20096;-67
2022/09/06 12:14:28;;;;;;;;;;;;;;;24.17;23.52;99919.44;1634709;86;20128;-68
2022/09/06 12:16:59;;;;;;;;;;;;;;;24.05;23.97;99913.78;1638837;86;21177;-71
2022/09/06 12:19:49;;;;;;;;;;;;;;;23.90;24.18;99914.36;1642238;86;20093;-71
2022/09/06 12:22:39;;;;;;;;;;;;;;;23.73;24.39;99916.22;1638013;86;20414;-68
2022/09/06 12:25:25;;;;;;;;;;;;;;;23.50;24.38;99904.96;1632068;86;20424;-69
2022/09/06 12:27:59;;;;;;;;;;;;;;;23.30;24.63;99907.27;1642014;86;20539;-68
2022/09/06 12:30:43;;;;;;;;;;;;;;;23.06;24.74;99904.34;1638078;86;21827;-69
2022/09/06 12:33:18;;;;;;;;;;;;;;;22.81;25.14;99898.41;1638814;86;20128;-68
2022/09/06 12:35:45;;;;;;;;;;;;;;;22.62;25.48;99898.56;1638466;86;20100;-68
2022/09/06 12:38:13;;;;;;;;;;;;;;;22.48;25.24;99890.87;1642392;86;20146;-68
2022/09/06 12:40:48;;;;;;;;;;;;;;;22.29;25.63;99893.44;1637680;86;20143;-70
2022/09/06 12:43:15;;;;;;;;;;;;;;;22.18;25.51;99892.38;1640133;86;21812;-69
2022/09/06 12:45:43;;;;;;;;;;;;;;;22.08;25.41;99891.58;1636441;86;20196;-70
2022/09/06 12:48:11;;;;;;;;;;;;;;;21.93;25.70;99884.45;1638384;86;20138;-67
2022/09/06 12:50:39;;;;;;;;;;;;;;;21.80;25.91;99879.74;1638836;86;20189;-70
2022/09/06 12:53:23;;;;;;;;;;;;;;;21.65;25.87;99886.97;1639381;86;20132;-68
2022/09/06 12:55:48;;;;;;;;;;;;;;;21.55;25.93;99877.23;1638341;86;21198;-70
2022/09/06 12:58:15;;;;;;;;;;;;;;;21.45;26.03;99879.16;1637111;86;20132;-69
2022/09/06 13:00:43;;;;;;;;;;;;;;;21.42;26.50;99878.27;1639142;86;20193;-70